sensor_id;sensor_type;location;lat;lon;timestamp;pressure;altitude;pressure_sealevel;temperature;humidity
37238;BME280;23129;49.662;8.448;2023-05-07T00:01:36;100605.25;;;17.87;63.26
37238;BME280;23129;49.662;8.448;2023-05-07T00:04:05;100605.44;;;17.84;63.47
37238;BME280;23129;49.662;8.448;2023-05-07T00:06:36;100601.06;;;17.83;63.46
37238;BME280;23129;49.662;8.448;2023-05-07T00:09:05;100603.88;;;17.79;63.28
37238;BME280;23129;49.662;8.448;2023-05-07T00:11:34;100609.28;;;17.78;63.78
37238;BME280;23129;49.662;8.448;2023-05-07T00:14:03;100609.31;;;17.76;63.71
37238;BME280;23129;49.662;8.448;2023-05-07T00:16:32;100596.31;;;17.72;63.72
37238;BME280;23129;49.662;8.448;2023-05-07T00:19:01;100589.44;;;17.68;64.05
37238;BME280;23129;49.662;8.448;2023-05-07T00:21:31;100588.78;;;17.64;63.93
37238;BME280;23129;49.662;8.448;2023-05-07T00:24:01;100592.38;;;17.63;63.85
37238;BME280;23129;49.662;8.448;2023-05-07T00:26:29;100589.91;;;17.60;64.49
37238;BME280;23129;49.662;8.448;2023-05-07T00:28:58;100591.00;;;17.56;64.21
37238;BME280;23129;49.662;8.448;2023-05-07T00:31:27;100588.38;;;17.56;64.50
37238;BME280;23129;49.662;8.448;2023-05-07T00:33:56;100594.75;;;17.52;64.46
37238;BME280;23129;49.662;8.448;2023-05-07T00:36:25;100594.91;;;17.49;64.53
37238;BME280;23129;49.662;8.448;2023-05-07T00:38:54;100591.47;;;17.47;64.99
37238;BME280;23129;49.662;8.448;2023-05-07T00:41:24;100584.66;;;17.43;64.81
37238;BME280;23129;49.662;8.448;2023-05-07T00:43:53;100583.28;;;17.36;65.04
37238;BME280;23129;49.662;8.448;2023-05-07T00:46:21;100583.44;;;17.32;65.30
37238;BME280;23129;49.662;8.448;2023-05-07T00:48:51;100590.69;;;17.29;65.13
37238;BME280;23129;49.662;8.448;2023-05-07T00:51:20;100582.03;;;17.25;65.32
37238;BME280;23129;49.662;8.448;2023-05-07T00:53:49;100582.19;;;17.22;65.62
37238;BME280;23129;49.662;8.448;2023-05-07T00:56:18;100581.63;;;17.17;65.74
37238;BME280;23129;49.662;8.448;2023-05-07T00:58:49;100579.13;;;17.14;66.06
37238;BME280;23129;49.662;8.448;2023-05-07T01:01:18;100581.16;;;17.09;66.03
37238;BME280;23129;49.662;8.448;2023-05-07T01:03:46;100585.75;;;17.05;66.29
37238;BME280;23129;49.662;8.448;2023-05-07T01:06:16;100573.53;;;17.03;66.40
37238;BME280;23129;49.662;8.448;2023-05-07T01:08:46;100582.56;;;16.99;66.66
37238;BME280;23129;49.662;8.448;2023-05-07T01:11:15;100571.38;;;16.94;66.54
37238;BME280;23129;49.662;8.448;2023-05-07T01:13:48;100563.63;;;16.89;66.68
37238;BME280;23129;49.662;8.448;2023-05-07T01:16:18;100575.41;;;16.83;67.14
37238;BME280;23129;49.662;8.448;2023-05-07T01:18:47;100572.84;;;16.82;67.11
37238;BME280;23129;49.662;8.448;2023-05-07T01:21:17;100571.13;;;16.81;67.56
37238;BME280;23129;49.662;8.448;2023-05-07T01:23:48;100568.56;;;16.79;67.50
37238;BME280;23129;49.662;8.448;2023-05-07T01:26:17;100567.88;;;16.76;67.56
37238;BME280;23129;49.662;8.448;2023-05-07T01:28:47;100565.25;;;16.74;67.58
37238;BME280;23129;49.662;8.448;2023-05-07T01:31:17;100557.41;;;16.73;68.10
37238;BME280;23129;49.662;8.448;2023-05-07T01:33:46;100558.41;;;16.70;68.04
37238;BME280;23129;49.662;8.448;2023-05-07T01:36:18;100557.63;;;16.68;68.44
37238;BME280;23129;49.662;8.448;2023-05-07T01:38:49;100556.84;;;16.66;68.50
37238;BME280;23129;49.662;8.448;2023-05-07T01:41:19;100559.66;;;16.63;68.56
37238;BME280;23129;49.662;8.448;2023-05-07T01:43:50;100553.59;;;16.61;68.75
37238;BME280;23129;49.662;8.448;2023-05-07T01:46:20;100550.31;;;16.56;68.86
37238;BME280;23129;49.662;8.448;2023-05-07T01:48:50;100556.72;;;16.52;69.23
37238;BME280;23129;49.662;8.448;2023-05-07T01:51:21;100559.50;;;16.49;69.37
37238;BME280;23129;49.662;8.448;2023-05-07T01:53:53;100556.22;;;16.43;69.88
37238;BME280;23129;49.662;8.448;2023-05-07T01:56:23;100565.28;;;16.39;69.79
37238;BME280;23129;49.662;8.448;2023-05-07T01:58:52;100559.97;;;16.39;70.05
37238;BME280;23129;49.662;8.448;2023-05-07T02:01:21;100560.13;;;16.36;70.05
37238;BME280;23129;49.662;8.448;2023-05-07T02:03:50;100556.59;;;16.36;70.21
37238;BME280;23129;49.662;8.448;2023-05-07T02:06:23;100560.13;;;16.36;70.14
37238;BME280;23129;49.662;8.448;2023-05-07T02:08:58;100565.28;;;16.39;70.37
37238;BME280;23129;49.662;8.448;2023-05-07T02:11:27;100556.38;;;16.40;70.31
37238;BME280;23129;49.662;8.448;2023-05-07T02:13:55;100564.50;;;16.37;70.42
37238;BME280;23129;49.662;8.448;2023-05-07T02:16:24;100562.84;;;16.35;70.67
37238;BME280;23129;49.662;8.448;2023-05-07T02:18:53;100560.34;;;16.32;70.82
37238;BME280;23129;49.662;8.448;2023-05-07T02:21:22;100562.31;;;16.28;70.95
37238;BME280;23129;49.662;8.448;2023-05-07T02:23:51;100563.31;;;16.26;71.19
37238;BME280;23129;49.662;8.448;2023-05-07T02:26:21;100567.75;;;16.25;71.32
37238;BME280;23129;49.662;8.448;2023-05-07T02:28:49;100568.75;;;16.23;71.40
37238;BME280;23129;49.662;8.448;2023-05-07T02:31:19;100570.59;;;16.20;71.60
37238;BME280;23129;49.662;8.448;2023-05-07T02:33:48;100578.63;;;16.19;71.83
37238;BME280;23129;49.662;8.448;2023-05-07T02:36:17;100577.84;;;16.17;71.92
37238;BME280;23129;49.662;8.448;2023-05-07T02:38:51;100577.06;;;16.15;71.99
37238;BME280;23129;49.662;8.448;2023-05-07T02:41:21;100582.44;;;16.13;72.16
37238;BME280;23129;49.662;8.448;2023-05-07T02:43:50;100580.78;;;16.11;72.41
37238;BME280;23129;49.662;8.448;2023-05-07T02:46:19;100579.25;;;16.07;72.34
37238;BME280;23129;49.662;8.448;2023-05-07T02:48:56;100570.50;;;16.05;72.66
37238;BME280;23129;49.662;8.448;2023-05-07T02:51:26;100579.38;;;16.04;72.83
37238;BME280;23129;49.662;8.448;2023-05-07T02:53:57;100584.97;;;15.97;72.95
37238;BME280;23129;49.662;8.448;2023-05-07T02:56:27;100572.81;;;15.93;72.91
37238;BME280;23129;49.662;8.448;2023-05-07T02:58:57;100572.94;;;15.90;73.32
37238;BME280;23129;49.662;8.448;2023-05-07T03:01:29;100576.69;;;15.86;73.51
37238;BME280;23129;49.662;8.448;2023-05-07T03:04:02;100574.25;;;15.82;73.58
37238;BME280;23129;49.662;8.448;2023-05-07T03:06:31;100576.97;;;15.80;73.73
37238;BME280;23129;49.662;8.448;2023-05-07T03:08:59;100577.97;;;15.78;73.85
37238;BME280;23129;49.662;8.448;2023-05-07T03:11:30;100575.38;;;15.76;74.05
37238;BME280;23129;49.662;8.448;2023-05-07T03:13:58;100570.25;;;15.73;74.20
37238;BME280;23129;49.662;8.448;2023-05-07T03:16:28;100558.09;;;15.69;74.18
37238;BME280;23129;49.662;8.448;2023-05-07T03:18:57;100556.41;;;15.68;74.49
37238;BME280;23129;49.662;8.448;2023-05-07T03:21:25;100554.78;;;15.64;74.65
37238;BME280;23129;49.662;8.448;2023-05-07T03:23:54;100561.94;;;15.62;74.68
37238;BME280;23129;49.662;8.448;2023-05-07T03:26:23;100553.06;;;15.63;74.63
37238;BME280;23129;49.662;8.448;2023-05-07T03:28:54;100554.94;;;15.61;74.83
37238;BME280;23129;49.662;8.448;2023-05-07T03:31:23;100556.66;;;15.62;74.84
37238;BME280;23129;49.662;8.448;2023-05-07T03:33:54;100551.53;;;15.59;75.05
37238;BME280;23129;49.662;8.448;2023-05-07T03:36:24;100543.78;;;15.54;75.24
37238;BME280;23129;49.662;8.448;2023-05-07T03:38:55;100539.50;;;15.51;75.27
37238;BME280;23129;49.662;8.448;2023-05-07T03:41:26;100543.22;;;15.47;75.60
37238;BME280;23129;49.662;8.448;2023-05-07T03:43:58;100534.50;;;15.45;75.67
37238;BME280;23129;49.662;8.448;2023-05-07T03:46:27;100543.38;;;15.44;75.65
37238;BME280;23129;49.662;8.448;2023-05-07T03:48:56;100542.44;;;15.45;75.83
37238;BME280;23129;49.662;8.448;2023-05-07T03:51:24;100542.50;;;15.44;75.97
37238;BME280;23129;49.662;8.448;2023-05-07T03:53:54;100545.22;;;15.42;75.90
37238;BME280;23129;49.662;8.448;2023-05-07T03:56:25;100548.00;;;15.39;75.99
37238;BME280;23129;49.662;8.448;2023-05-07T03:58:58;100548.09;;;15.38;76.08
37238;BME280;23129;49.662;8.448;2023-05-07T04:01:26;100553.38;;;15.38;76.17
37238;BME280;23129;49.662;8.448;2023-05-07T04:03:56;100559.38;;;15.41;76.15
37238;BME280;23129;49.662;8.448;2023-05-07T04:06:25;100554.09;;;15.41;76.25
37238;BME280;23129;49.662;8.448;2023-05-07T04:08:54;100563.72;;;15.42;76.32
37238;BME280;23129;49.662;8.448;2023-05-07T04:11:23;100571.50;;;15.45;76.44
37238;BME280;23129;49.662;8.448;2023-05-07T04:13:52;100567.94;;;15.46;76.42
37238;BME280;23129;49.662;8.448;2023-05-07T04:16:24;100567.78;;;15.49;76.54
37238;BME280;23129;49.662;8.448;2023-05-07T04:18:53;100571.22;;;15.51;76.77
37238;BME280;23129;49.662;8.448;2023-05-07T04:21:22;100575.53;;;15.54;76.58
37238;BME280;23129;49.662;8.448;2023-05-07T04:23:52;100571.94;;;15.55;76.75
37238;BME280;23129;49.662;8.448;2023-05-07T04:26:20;100573.66;;;15.56;76.90
37238;BME280;23129;49.662;8.448;2023-05-07T04:28:51;100569.22;;;15.57;77.14
37238;BME280;23129;49.662;8.448;2023-05-07T04:31:20;100580.59;;;15.59;77.21
37238;BME280;23129;49.662;8.448;2023-05-07T04:33:53;100577.81;;;15.62;77.24
37238;BME280;23129;49.662;8.448;2023-05-07T04:36:21;100584.81;;;15.63;77.26
37238;BME280;23129;49.662;8.448;2023-05-07T04:38:57;100578.44;;;15.67;77.05
37238;BME280;23129;49.662;8.448;2023-05-07T04:41:26;100584.56;;;15.69;77.44
37238;BME280;23129;49.662;8.448;2023-05-07T04:43:56;100576.41;;;15.73;77.37
37238;BME280;23129;49.662;8.448;2023-05-07T04:46:27;100593.91;;;15.76;77.52
37238;BME280;23129;49.662;8.448;2023-05-07T04:48:59;100593.69;;;15.81;77.53
37238;BME280;23129;49.662;8.448;2023-05-07T04:51:28;100593.47;;;15.85;77.42
37238;BME280;23129;49.662;8.448;2023-05-07T04:53:56;100589.69;;;15.91;77.54
37238;BME280;23129;49.662;8.448;2023-05-07T04:56:28;100592.97;;;15.96;77.80
37238;BME280;23129;49.662;8.448;2023-05-07T04:58:58;100597.13;;;16.02;77.46
37238;BME280;23129;49.662;8.448;2023-05-07T05:01:28;100595.88;;;16.09;77.75
37238;BME280;23129;49.662;8.448;2023-05-07T05:03:58;100593.72;;;16.17;77.57
37238;BME280;23129;49.662;8.448;2023-05-07T05:06:29;100597.00;;;16.22;77.70
37238;BME280;23129;49.662;8.448;2023-05-07T05:08:58;100588.63;;;16.31;77.43
37238;BME280;23129;49.662;8.448;2023-05-07T05:11:29;100598.75;;;16.40;77.36
37238;BME280;23129;49.662;8.448;2023-05-07T05:13:59;100600.00;;;16.51;77.42
37238;BME280;23129;49.662;8.448;2023-05-07T05:16:29;100600.63;;;16.56;77.35
37238;BME280;23129;49.662;8.448;2023-05-07T05:19:01;100608.09;;;16.65;77.29
37238;BME280;23129;49.662;8.448;2023-05-07T05:21:32;100605.16;;;16.71;77.07
37238;BME280;23129;49.662;8.448;2023-05-07T05:24:07;100605.66;;;16.79;77.18
37238;BME280;23129;49.662;8.448;2023-05-07T05:26:35;100602.69;;;16.85;77.24
37238;BME280;23129;49.662;8.448;2023-05-07T05:29:05;100599.66;;;16.93;76.97
37238;BME280;23129;49.662;8.448;2023-05-07T05:31:36;100608.03;;;17.01;76.83
37238;BME280;23129;49.662;8.448;2023-05-07T05:34:06;100605.69;;;17.13;76.83
37238;BME280;23129;49.662;8.448;2023-05-07T05:36:36;100610.59;;;17.20;76.83
37238;BME280;23129;49.662;8.448;2023-05-07T05:39:05;100606.69;;;17.27;76.88
37238;BME280;23129;49.662;8.448;2023-05-07T05:41:34;100608.22;;;17.31;76.73
37238;BME280;23129;49.662;8.448;2023-05-07T05:44:03;100612.66;;;17.31;76.67
37238;BME280;23129;49.662;8.448;2023-05-07T05:46:32;100610.13;;;17.29;76.97
37238;BME280;23129;49.662;8.448;2023-05-07T05:49:03;100606.34;;;17.33;77.22
37238;BME280;23129;49.662;8.448;2023-05-07T05:51:34;100615.78;;;17.39;76.93
37238;BME280;23129;49.662;8.448;2023-05-07T05:54:02;100615.63;;;17.42;76.88
37238;BME280;23129;49.662;8.448;2023-05-07T05:56:32;100614.44;;;17.48;76.84
37238;BME280;23129;49.662;8.448;2023-05-07T05:59:02;100614.28;;;17.51;77.07
37238;BME280;23129;49.662;8.448;2023-05-07T06:01:31;100610.50;;;17.55;77.02
37238;BME280;23129;49.662;8.448;2023-05-07T06:04:03;100613.94;;;17.57;76.93
37238;BME280;23129;49.662;8.448;2023-05-07T06:06:33;100615.63;;;17.58;77.20
37238;BME280;23129;49.662;8.448;2023-05-07T06:09:03;100618.22;;;17.60;77.00
37238;BME280;23129;49.662;8.448;2023-05-07T06:11:37;100616.59;;;17.73;76.69
37238;BME280;23129;49.662;8.448;2023-05-07T06:14:07;100624.38;;;17.60;76.92
37238;BME280;23129;49.662;8.448;2023-05-07T06:16:36;100624.28;;;17.62;77.31
37238;BME280;23129;49.662;8.448;2023-05-07T06:19:07;100619.84;;;17.62;77.13
37238;BME280;23129;49.662;8.448;2023-05-07T06:21:39;100619.59;;;17.67;77.22
37238;BME280;23129;49.662;8.448;2023-05-07T06:24:08;100621.06;;;17.72;77.20
37238;BME280;23129;49.662;8.448;2023-05-07T06:26:39;100620.75;;;17.78;77.20
37238;BME280;23129;49.662;8.448;2023-05-07T06:30:00;100615.59;;;17.91;77.08
37238;BME280;23129;49.662;8.448;2023-05-07T06:32:29;100627.25;;;17.89;76.96
37238;BME280;23129;49.662;8.448;2023-05-07T06:34:58;100618.03;;;17.96;76.92
37238;BME280;23129;49.662;8.448;2023-05-07T06:37:29;100637.78;;;18.06;77.06
37238;BME280;23129;49.662;8.448;2023-05-07T06:40:03;100633.88;;;18.13;76.64
37238;BME280;23129;49.662;8.448;2023-05-07T06:42:33;100637.28;;;18.15;76.67
37238;BME280;23129;49.662;8.448;2023-05-07T06:45:19;100638.81;;;18.19;76.72
37238;BME280;23129;49.662;8.448;2023-05-07T06:47:48;100635.22;;;18.20;76.38
37238;BME280;23129;49.662;8.448;2023-05-07T06:50:17;100625.03;;;18.29;76.29
37238;BME280;23129;49.662;8.448;2023-05-07T06:52:48;100615.69;;;18.37;76.43
37238;BME280;23129;49.662;8.448;2023-05-07T06:55:17;100621.31;;;18.47;75.98
37238;BME280;23129;49.662;8.448;2023-05-07T06:57:46;100611.09;;;18.55;75.71
37238;BME280;23129;49.662;8.448;2023-05-07T07:00:16;100619.19;;;18.68;75.50
37238;BME280;23129;49.662;8.448;2023-05-07T07:02:50;100615.94;;;18.79;75.41
37238;BME280;23129;49.662;8.448;2023-05-07T07:05:21;100617.28;;;18.86;74.94
37238;BME280;23129;49.662;8.448;2023-05-07T07:07:51;100615.88;;;18.95;75.13
37238;BME280;23129;49.662;8.448;2023-05-07T07:10:22;100619.88;;;19.02;74.75
37238;BME280;23129;49.662;8.448;2023-05-07T07:12:52;100616.00;;;19.07;74.51
37238;BME280;23129;49.662;8.448;2023-05-07T07:15:22;100622.66;;;19.14;74.40
37238;BME280;23129;49.662;8.448;2023-05-07T07:17:53;100621.91;;;19.27;74.07
37238;BME280;23129;49.662;8.448;2023-05-07T07:20:23;100625.63;;;19.38;73.68
37238;BME280;23129;49.662;8.448;2023-05-07T07:22:53;100616.97;;;19.49;73.64
37238;BME280;23129;49.662;8.448;2023-05-07T07:25:22;100621.91;;;19.55;73.41
37238;BME280;23129;49.662;8.448;2023-05-07T07:27:51;100625.13;;;19.60;73.30
37238;BME280;23129;49.662;8.448;2023-05-07T07:30:21;100631.81;;;19.68;73.35
37238;BME280;23129;49.662;8.448;2023-05-07T07:32:50;100632.31;;;19.74;73.00
37238;BME280;23129;49.662;8.448;2023-05-07T07:35:20;100632.09;;;19.77;72.89
37238;BME280;23129;49.662;8.448;2023-05-07T07:37:49;100632.75;;;19.81;72.86
37238;BME280;23129;49.662;8.448;2023-05-07T07:40:19;100632.56;;;19.84;72.65
37238;BME280;23129;49.662;8.448;2023-05-07T07:42:48;100643.09;;;19.86;72.69
37238;BME280;23129;49.662;8.448;2023-05-07T07:45:17;100639.59;;;19.85;72.58
37238;BME280;23129;49.662;8.448;2023-05-07T07:47:48;100642.44;;;19.82;72.48
37238;BME280;23129;49.662;8.448;2023-05-07T07:50:17;100647.88;;;19.80;72.50
37238;BME280;23129;49.662;8.448;2023-05-07T07:53:07;100643.41;;;19.81;72.30
37238;BME280;23129;49.662;8.448;2023-05-07T07:55:39;100641.47;;;19.83;72.41
37238;BME280;23129;49.662;8.448;2023-05-07T07:58:11;100647.69;;;19.83;72.25
37238;BME280;23129;49.662;8.448;2023-05-07T08:00:40;100651.75;;;19.89;72.18
37238;BME280;23129;49.662;8.448;2023-05-07T08:03:10;100647.94;;;19.93;71.86
37238;BME280;23129;49.662;8.448;2023-05-07T08:05:43;100651.53;;;19.92;71.69
37238;BME280;23129;49.662;8.448;2023-05-07T08:08:12;100648.81;;;19.94;71.70
37238;BME280;23129;49.662;8.448;2023-05-07T08:10:43;100644.97;;;19.98;71.59
37238;BME280;23129;49.662;8.448;2023-05-07T08:13:19;100643.00;;;20.01;71.36
37238;BME280;23129;49.662;8.448;2023-05-07T08:15:48;100643.34;;;20.10;71.21
37238;BME280;23129;49.662;8.448;2023-05-07T08:18:17;100643.50;;;20.21;71.19
37238;BME280;23129;49.662;8.448;2023-05-07T08:20:47;100644.59;;;20.31;70.82
37238;BME280;23129;49.662;8.448;2023-05-07T08:23:20;100648.38;;;20.41;70.31
37238;BME280;23129;49.662;8.448;2023-05-07T08:25:51;100648.75;;;20.49;70.22
37238;BME280;23129;49.662;8.448;2023-05-07T08:28:20;100654.44;;;20.58;69.97
37238;BME280;23129;49.662;8.448;2023-05-07T08:30:49;100648.28;;;20.70;69.64
37238;BME280;23129;49.662;8.448;2023-05-07T08:33:18;100647.50;;;20.82;69.36
37238;BME280;23129;49.662;8.448;2023-05-07T08:35:47;100655.38;;;20.96;69.12
37238;BME280;23129;49.662;8.448;2023-05-07T08:38:16;100654.34;;;21.12;68.67
37238;BME280;23129;49.662;8.448;2023-05-07T08:40:45;100645.28;;;21.27;68.20
37238;BME280;23129;49.662;8.448;2023-05-07T08:43:20;100644.97;;;21.45;67.81
37238;BME280;23129;49.662;8.448;2023-05-07T08:45:52;100645.63;;;21.61;67.36
37238;BME280;23129;49.662;8.448;2023-05-07T08:48:25;100654.16;;;21.79;66.94
37238;BME280;23129;49.662;8.448;2023-05-07T08:51:04;100652.19;;;21.94;66.44
37238;BME280;23129;49.662;8.448;2023-05-07T08:53:33;100657.88;;;22.13;66.43
37238;BME280;23129;49.662;8.448;2023-05-07T08:56:03;100647.16;;;22.39;65.31
37238;BME280;23129;49.662;8.448;2023-05-07T08:58:33;100649.19;;;22.59;65.19
37238;BME280;23129;49.662;8.448;2023-05-07T09:01:07;100656.09;;;22.86;64.15
37238;BME280;23129;49.662;8.448;2023-05-07T09:03:38;100656.91;;;22.99;63.70
37238;BME280;23129;49.662;8.448;2023-05-07T09:06:07;100657.19;;;23.18;63.55
37238;BME280;23129;49.662;8.448;2023-05-07T09:08:36;100657.69;;;23.35;62.69
37238;BME280;23129;49.662;8.448;2023-05-07T09:11:07;100653.06;;;23.48;62.12
37238;BME280;23129;49.662;8.448;2023-05-07T09:13:38;100654.06;;;23.58;61.88
37238;BME280;23129;49.662;8.448;2023-05-07T09:16:11;100653.13;;;23.71;61.94
37238;BME280;23129;49.662;8.448;2023-05-07T09:18:43;100638.25;;;23.78;61.17
37238;BME280;23129;49.662;8.448;2023-05-07T09:21:15;100641.53;;;23.92;61.00
37238;BME280;23129;49.662;8.448;2023-05-07T09:23:47;100638.47;;;24.08;60.71
37238;BME280;23129;49.662;8.448;2023-05-07T09:26:16;100641.84;;;24.22;60.35
37238;BME280;23129;49.662;8.448;2023-05-07T09:28:46;100634.97;;;24.40;59.46
37238;BME280;23129;49.662;8.448;2023-05-07T09:31:15;100647.59;;;24.60;58.81
37238;BME280;23129;49.662;8.448;2023-05-07T09:33:47;100649.47;;;24.81;58.48
37238;BME280;23129;49.662;8.448;2023-05-07T09:36:18;100647.91;;;24.99;57.97
37238;BME280;23129;49.662;8.448;2023-05-07T09:38:47;100650.03;;;25.17;57.49
37238;BME280;23129;49.662;8.448;2023-05-07T09:41:19;100648.97;;;25.29;57.12
37238;BME280;23129;49.662;8.448;2023-05-07T09:43:59;100641.91;;;25.28;57.21
37238;BME280;23129;49.662;8.448;2023-05-07T09:46:36;100642.53;;;25.20;56.91
37238;BME280;23129;49.662;8.448;2023-05-07T09:49:21;100633.38;;;25.23;56.87
37238;BME280;23129;49.662;8.448;2023-05-07T09:51:53;100631.16;;;25.28;56.38
37238;BME280;23129;49.662;8.448;2023-05-07T09:54:25;100629.88;;;25.63;55.38
37238;BME280;23129;49.662;8.448;2023-05-07T09:56:56;100624.88;;;25.79;54.95
37238;BME280;23129;49.662;8.448;2023-05-07T09:59:31;100626.56;;;25.80;54.69
37238;BME280;23129;49.662;8.448;2023-05-07T10:02:04;100631.91;;;25.70;54.78
37238;BME280;23129;49.662;8.448;2023-05-07T10:04:40;100621.47;;;25.77;54.56
37238;BME280;23129;49.662;8.448;2023-05-07T10:07:09;100616.16;;;25.96;53.87
37238;BME280;23129;49.662;8.448;2023-05-07T10:09:39;100617.03;;;26.07;53.47
37238;BME280;23129;49.662;8.448;2023-05-07T10:12:17;100611.69;;;26.46;52.75
37238;BME280;23129;49.662;8.448;2023-05-07T10:14:49;100605.88;;;26.99;51.47
37238;BME280;23129;49.662;8.448;2023-05-07T10:17:19;100608.81;;;27.62;50.06
37238;BME280;23129;49.662;8.448;2023-05-07T10:19:49;100606.16;;;28.08;49.33
37238;BME280;23129;49.662;8.448;2023-05-07T10:22:18;100610.13;;;28.49;48.72
37238;BME280;23129;49.662;8.448;2023-05-07T10:24:49;100613.34;;;28.71;47.89
37238;BME280;23129;49.662;8.448;2023-05-07T10:27:21;100616.38;;;28.67;47.99
37238;BME280;23129;49.662;8.448;2023-05-07T10:30:03;100612.28;;;28.63;48.54
37238;BME280;23129;49.662;8.448;2023-05-07T10:32:40;100605.25;;;28.35;48.71
37238;BME280;23129;49.662;8.448;2023-05-07T10:35:20;100609.03;;;28.06;49.14
37238;BME280;23129;49.662;8.448;2023-05-07T10:37:50;100612.38;;;27.90;49.13
37238;BME280;23129;49.662;8.448;2023-05-07T10:40:21;100609.44;;;27.84;48.89
37238;BME280;23129;49.662;8.448;2023-05-07T10:42:56;100608.53;;;27.93;48.45
37238;BME280;23129;49.662;8.448;2023-05-07T10:45:30;100606.28;;;27.88;48.13
37238;BME280;23129;49.662;8.448;2023-05-07T10:48:12;100610.81;;;27.88;48.39
37238;BME280;23129;49.662;8.448;2023-05-07T10:51:21;100606.97;;;27.90;48.05
37238;BME280;23129;49.662;8.448;2023-05-07T10:54:19;100592.75;;;27.98;48.03
37238;BME280;23129;49.662;8.448;2023-05-07T10:57:35;100598.09;;;28.61;47.07
37238;BME280;23129;49.662;8.448;2023-05-07T11:00:44;100587.13;;;29.33;45.94
37238;BME280;23129;49.662;8.448;2023-05-07T11:03:20;100589.56;;;29.52;44.43
37238;BME280;23129;49.662;8.448;2023-05-07T11:06:11;100586.84;;;29.44;44.85
37238;BME280;23129;49.662;8.448;2023-05-07T11:08:55;100584.34;;;29.51;45.23
37238;BME280;23129;49.662;8.448;2023-05-07T11:11:52;100584.84;;;29.97;44.05
37238;BME280;23129;49.662;8.448;2023-05-07T11:14:43;100577.34;;;30.41;44.00
37238;BME280;23129;49.662;8.448;2023-05-07T11:17:21;100576.66;;;30.47;43.01
37238;BME280;23129;49.662;8.448;2023-05-07T11:19:57;100570.22;;;30.57;42.74
37238;BME280;23129;49.662;8.448;2023-05-07T11:22:38;100574.16;;;30.79;42.84
37238;BME280;23129;49.662;8.448;2023-05-07T11:25:18;100569.81;;;31.17;42.12
37238;BME280;23129;49.662;8.448;2023-05-07T11:27:53;100562.34;;;31.35;41.20
37238;BME280;23129;49.662;8.448;2023-05-07T11:30:22;100564.66;;;31.47;41.58
37238;BME280;23129;49.662;8.448;2023-05-07T11:32:52;100561.56;;;31.58;41.19
37238;BME280;23129;49.662;8.448;2023-05-07T11:35:23;100557.44;;;31.70;40.74
37238;BME280;23129;49.662;8.448;2023-05-07T11:37:59;100563.41;;;31.97;40.27
37238;BME280;23129;49.662;8.448;2023-05-07T11:40:31;100561.03;;;32.25;39.52
37238;BME280;23129;49.662;8.448;2023-05-07T11:42:59;100561.16;;;32.69;38.48
37238;BME280;23129;49.662;8.448;2023-05-07T11:45:38;100557.41;;;33.08;38.27
37238;BME280;23129;49.662;8.448;2023-05-07T11:48:08;100552.78;;;33.38;37.68
37238;BME280;23129;49.662;8.448;2023-05-07T11:50:39;100546.50;;;33.68;37.09
37238;BME280;23129;49.662;8.448;2023-05-07T11:53:18;100553.13;;;34.01;36.53
37238;BME280;23129;49.662;8.448;2023-05-07T11:55:48;100546.88;;;34.22;36.07
37238;BME280;23129;49.662;8.448;2023-05-07T11:58:22;100542.00;;;34.39;35.85
37238;BME280;23129;49.662;8.448;2023-05-07T12:00:51;100544.50;;;34.56;35.76
37238;BME280;23129;49.662;8.448;2023-05-07T12:03:21;100549.66;;;34.72;35.06
37238;BME280;23129;49.662;8.448;2023-05-07T12:05:49;100537.53;;;34.81;35.10
37238;BME280;23129;49.662;8.448;2023-05-07T12:08:19;100538.66;;;34.93;34.45
37238;BME280;23129;49.662;8.448;2023-05-07T12:10:49;100536.06;;;35.07;34.51
37238;BME280;23129;49.662;8.448;2023-05-07T12:13:19;100540.16;;;35.24;34.10
37238;BME280;23129;49.662;8.448;2023-05-07T12:15:51;100540.84;;;35.39;33.76
37238;BME280;23129;49.662;8.448;2023-05-07T12:18:22;100524.53;;;35.53;33.50
37238;BME280;23129;49.662;8.448;2023-05-07T12:20:51;100533.59;;;35.60;33.42
37238;BME280;23129;49.662;8.448;2023-05-07T12:23:21;100531.75;;;35.67;32.93
37238;BME280;23129;49.662;8.448;2023-05-07T12:25:50;100523.31;;;35.62;33.08
37238;BME280;23129;49.662;8.448;2023-05-07T12:28:19;100526.69;;;35.64;32.67
37238;BME280;23129;49.662;8.448;2023-05-07T12:30:49;100527.25;;;35.53;32.56
37238;BME280;23129;49.662;8.448;2023-05-07T12:33:19;100513.97;;;35.36;32.93
37238;BME280;23129;49.662;8.448;2023-05-07T12:35:55;100531.16;;;35.30;32.65
37238;BME280;23129;49.662;8.448;2023-05-07T12:38:24;100525.31;;;35.33;32.54
37238;BME280;23129;49.662;8.448;2023-05-07T12:40:54;100526.13;;;35.27;32.78
37238;BME280;23129;49.662;8.448;2023-05-07T12:43:25;100523.06;;;35.09;32.53
37238;BME280;23129;49.662;8.448;2023-05-07T12:45:56;100517.78;;;34.72;32.92
37238;BME280;23129;49.662;8.448;2023-05-07T12:48:25;100527.25;;;34.27;32.89
37238;BME280;23129;49.662;8.448;2023-05-07T12:50:56;100529.66;;;33.79;33.31
37238;BME280;23129;49.662;8.448;2023-05-07T12:53:26;100522.41;;;33.35;33.62
37238;BME280;23129;49.662;8.448;2023-05-07T12:55:57;100526.25;;;32.96;33.90
37238;BME280;23129;49.662;8.448;2023-05-07T12:58:28;100518.53;;;32.55;34.45
37238;BME280;23129;49.662;8.448;2023-05-07T13:00:59;100515.41;;;32.20;34.38
37238;BME280;23129;49.662;8.448;2023-05-07T13:03:30;100511.53;;;31.92;34.68
37238;BME280;23129;49.662;8.448;2023-05-07T13:06:03;100509.19;;;31.57;35.00
37238;BME280;23129;49.662;8.448;2023-05-07T13:08:35;100504.38;;;31.28;35.09
37238;BME280;23129;49.662;8.448;2023-05-07T13:11:06;100503.97;;;31.08;35.42
37238;BME280;23129;49.662;8.448;2023-05-07T13:13:37;100499.44;;;30.92;35.42